sensor_id;sensor_type;location;lat;lon;timestamp;pressure;altitude;pressure_sealevel;temperature;humidity
54666;BME280;40566;50.006;36.180;2022-11-15T00:03:16;100690.19;;;1.00;61.33
54666;BME280;40566;50.006;36.180;2022-11-15T00:08:17;100673.25;;;1.02;61.38
54666;BME280;40566;50.006;36.180;2022-11-15T00:13:18;100683.59;;;1.08;61.17
54666;BME280;40566;50.006;36.180;2022-11-15T00:18:19;100678.44;;;1.05;61.23
54666;BME280;40566;50.006;36.180;2022-11-15T00:23:19;100677.47;;;1.00;61.40
54666;BME280;40566;50.006;36.180;2022-11-15T00:28:20;100674.75;;;0.94;61.51
54666;BME280;40566;50.006;36.180;2022-11-15T00:33:20;100683.28;;;0.96;61.45
54666;BME280;40566;50.006;36.180;2022-11-15T00:38:21;100679.84;;;0.94;61.21
54666;BME280;40566;50.006;36.180;2022-11-15T00:43:22;100670.41;;;0.90;61.46
54666;BME280;40566;50.006;36.180;2022-11-15T00:48:22;100675.50;;;0.90;61.43
54666;BME280;40566;50.006;36.180;2022-11-15T00:53:23;100669.19;;;0.77;61.70
54666;BME280;40566;50.006;36.180;2022-11-15T00:58:23;100670.56;;;0.64;61.85
54666;BME280;40566;50.006;36.180;2022-11-15T01:03:24;100670.50;;;0.63;61.82
54666;BME280;40566;50.006;36.180;2022-11-15T01:08:25;100671.56;;;0.69;61.50
54666;BME280;40566;50.006;36.180;2022-11-15T01:13:25;100668.91;;;0.66;61.40
54666;BME280;40566;50.006;36.180;2022-11-15T01:18:26;100669.78;;;0.67;61.33
54666;BME280;40566;50.006;36.180;2022-11-15T01:23:26;100664.47;;;0.59;61.43
54666;BME280;40566;50.006;36.180;2022-11-15T01:28:34;100663.41;;;0.51;61.38
54666;BME280;40566;50.006;36.180;2022-11-15T01:33:35;100664.13;;;0.47;61.63
54666;BME280;40566;50.006;36.180;2022-11-15T01:38:37;100658.66;;;0.33;61.91
54666;BME280;40566;50.006;36.180;2022-11-15T01:43:39;100648.25;;;0.25;62.13
54666;BME280;40566;50.006;36.180;2022-11-15T01:48:39;100656.16;;;0.34;61.66
54666;BME280;40566;50.006;36.180;2022-11-15T01:53:42;100655.53;;;0.13;61.85
54666;BME280;40566;50.006;36.180;2022-11-15T01:58:45;100654.69;;;0.12;61.92
54666;BME280;40566;50.006;36.180;2022-11-15T02:03:52;100649.00;;;0.21;61.49
54666;BME280;40566;50.006;36.180;2022-11-15T02:08:56;100658.13;;;0.14;61.58
54666;BME280;40566;50.006;36.180;2022-11-15T02:13:59;100650.19;;;0.04;62.01
54666;BME280;40566;50.006;36.180;2022-11-15T02:35:43;100648.38;;;-0.01;61.73
54666;BME280;40566;50.006;36.180;2022-11-15T02:41:06;100649.50;;;-0.19;62.01
54666;BME280;40566;50.006;36.180;2022-11-15T02:51:51;100646.19;;;-0.17;61.75
54666;BME280;40566;50.006;36.180;2022-11-15T02:56:54;100641.06;;;-0.18;61.84
54666;BME280;40566;50.006;36.180;2022-11-15T03:02:24;100638.22;;;-0.28;62.14
54666;BME280;40566;50.006;36.180;2022-11-15T03:07:35;100641.78;;;-0.23;61.93
54666;BME280;40566;50.006;36.180;2022-11-15T03:12:48;100636.69;;;-0.23;61.87
54666;BME280;40566;50.006;36.180;2022-11-15T03:17:58;100630.59;;;-0.28;62.05
54666;BME280;40566;50.006;36.180;2022-11-15T03:23:08;100643.19;;;-0.32;62.19
54666;BME280;40566;50.006;36.180;2022-11-15T03:28:13;100635.72;;;-0.26;61.89
54666;BME280;40566;50.006;36.180;2022-11-15T03:33:18;100632.16;;;-0.33;62.11
54666;BME280;40566;50.006;36.180;2022-11-15T03:38:26;100626.72;;;-0.44;62.33
54666;BME280;40566;50.006;36.180;2022-11-15T03:49:02;100631.34;;;-0.59;62.29
54666;BME280;40566;50.006;36.180;2022-11-15T03:54:05;100624.63;;;-0.57;62.40
54666;BME280;40566;50.006;36.180;2022-11-15T03:59:06;100625.19;;;-0.66;62.47
54666;BME280;40566;50.006;36.180;2022-11-15T04:04:06;100625.34;;;-0.61;62.28
54666;BME280;40566;50.006;36.180;2022-11-15T04:09:07;100624.34;;;-0.66;62.27
54666;BME280;40566;50.006;36.180;2022-11-15T04:14:26;100625.97;;;-0.68;62.37
54666;BME280;40566;50.006;36.180;2022-11-15T04:19:45;100631.63;;;-0.77;62.38
54666;BME280;40566;50.006;36.180;2022-11-15T04:25:04;100624.03;;;-0.75;62.49
54666;BME280;40566;50.006;36.180;2022-11-15T04:30:06;100621.78;;;-0.66;62.10
54666;BME280;40566;50.006;36.180;2022-11-15T04:35:25;100624.88;;;-0.76;62.39
54666;BME280;40566;50.006;36.180;2022-11-15T04:40:44;100622.47;;;-0.97;62.54
54666;BME280;40566;50.006;36.180;2022-11-15T04:46:03;100622.53;;;-0.96;62.70
54666;BME280;40566;50.006;36.180;2022-11-15T04:51:04;100619.53;;;-0.84;62.27
54666;BME280;40566;50.006;36.180;2022-11-15T04:56:04;100620.53;;;-0.79;62.01
54666;BME280;40566;50.006;36.180;2022-11-15T05:01:09;100620.59;;;-0.77;62.10
54666;BME280;40566;50.006;36.180;2022-11-15T05:06:10;100621.66;;;-0.71;61.95
54666;BME280;40566;50.006;36.180;2022-11-15T05:11:11;100619.88;;;-0.73;61.95
54666;BME280;40566;50.006;36.180;2022-11-15T05:16:11;100623.22;;;-0.74;62.27
54666;BME280;40566;50.006;36.180;2022-11-15T05:21:14;100627.41;;;-0.76;62.70
54666;BME280;40566;50.006;36.180;2022-11-15T05:26:16;100631.72;;;-0.74;62.62
54666;BME280;40566;50.006;36.180;2022-11-15T05:31:17;100631.28;;;-0.61;62.33
54666;BME280;40566;50.006;36.180;2022-11-15T05:36:31;100635.72;;;-0.55;62.41
54666;BME280;40566;50.006;36.180;2022-11-15T05:41:38;100637.91;;;-0.38;62.04
54666;BME280;40566;50.006;36.180;2022-11-15T05:46:40;100636.50;;;-0.29;62.21
54666;BME280;40566;50.006;36.180;2022-11-15T05:51:44;100633.44;;;-0.18;62.02
54666;BME280;40566;50.006;36.180;2022-11-15T05:56:46;100633.66;;;-0.11;62.13
54666;BME280;40566;50.006;36.180;2022-11-15T06:01:46;100623.63;;;-0.06;62.32
54666;BME280;40566;50.006;36.180;2022-11-15T06:06:47;100621.22;;;-0.02;62.62
54666;BME280;40566;50.006;36.180;2022-11-15T06:11:48;100625.81;;;0.12;62.53
54666;BME280;40566;50.006;36.180;2022-11-15T06:16:49;100633.84;;;0.24;62.60
54666;BME280;40566;50.006;36.180;2022-11-15T06:21:49;100611.25;;;0.36;62.52
54666;BME280;40566;50.006;36.180;2022-11-15T06:26:50;100611.53;;;0.47;62.55
54666;BME280;40566;50.006;36.180;2022-11-15T06:31:52;100608.50;;;0.61;62.60
54666;BME280;40566;50.006;36.180;2022-11-15T06:36:53;100605.44;;;0.72;62.64
54666;BME280;40566;50.006;36.180;2022-11-15T06:41:54;100597.19;;;0.81;62.64
54666;BME280;40566;50.006;36.180;2022-11-15T06:46:54;100611.72;;;0.87;62.89
54666;BME280;40566;50.006;36.180;2022-11-15T06:51:58;100610.47;;;1.04;62.76
54666;BME280;40566;50.006;36.180;2022-11-15T06:56:58;100619.34;;;1.20;62.88
54666;BME280;40566;50.006;36.180;2022-11-15T07:01:59;100606.09;;;1.33;62.77
54666;BME280;40566;50.006;36.180;2022-11-15T07:06:59;100589.19;;;1.37;62.74
54666;BME280;40566;50.006;36.180;2022-11-15T07:12:00;100586.88;;;1.48;62.89
54666;BME280;40566;50.006;36.180;2022-11-15T07:17:04;100595.50;;;1.53;62.81
54666;BME280;40566;50.006;36.180;2022-11-15T07:22:05;100590.88;;;1.74;62.73
54666;BME280;40566;50.006;36.180;2022-11-15T07:27:05;100584.84;;;2.12;61.95
54666;BME280;40566;50.006;36.180;2022-11-15T07:32:06;100574.22;;;2.34;61.61
54666;BME280;40566;50.006;36.180;2022-11-15T07:37:06;100562.81;;;2.15;62.21
54666;BME280;40566;50.006;36.180;2022-11-15T07:42:07;100568.81;;;2.19;62.22
54666;BME280;40566;50.006;36.180;2022-11-15T07:47:28;100559.66;;;2.77;61.16
54666;BME280;40566;50.006;36.180;2022-11-15T07:52:29;100561.28;;;3.24;60.13
54666;BME280;40566;50.006;36.180;2022-11-15T07:57:29;100559.00;;;3.44;59.98
54666;BME280;40566;50.006;36.180;2022-11-15T08:02:30;100548.31;;;3.74;59.70
54666;BME280;40566;50.006;36.180;2022-11-15T08:07:31;100543.50;;;3.97;59.09
54666;BME280;40566;50.006;36.180;2022-11-15T08:12:31;100535.63;;;4.62;58.06
54666;BME280;40566;50.006;36.180;2022-11-15T08:17:32;100540.28;;;5.04;56.67
54666;BME280;40566;50.006;36.180;2022-11-15T08:22:34;100536.91;;;4.18;59.18
54666;BME280;40566;50.006;36.180;2022-11-15T08:27:34;100518.66;;;3.87;60.12
54666;BME280;40566;50.006;36.180;2022-11-15T08:32:35;100513.47;;;3.81;60.21
54666;BME280;40566;50.006;36.180;2022-11-15T08:37:36;100498.88;;;5.94;54.98
54666;BME280;40566;50.006;36.180;2022-11-15T08:42:36;100493.16;;;10.78;44.47
54666;BME280;40566;50.006;36.180;2022-11-15T08:47:37;100491.69;;;10.64;44.81
54666;BME280;40566;50.006;36.180;2022-11-15T08:52:38;100493.31;;;8.36;50.27
54666;BME280;40566;50.006;36.180;2022-11-15T08:57:38;100503.28;;;6.88;54.37
54666;BME280;40566;50.006;36.180;2022-11-15T09:02:39;100494.69;;;6.29;55.57
54666;BME280;40566;50.006;36.180;2022-11-15T09:07:40;100488.38;;;5.47;57.17
54666;BME280;40566;50.006;36.180;2022-11-15T09:12:41;100482.50;;;5.72;56.35
54666;BME280;40566;50.006;36.180;2022-11-15T09:17:42;100478.16;;;5.61;56.10
54666;BME280;40566;50.006;36.180;2022-11-15T09:22:42;100484.88;;;5.31;57.01
54666;BME280;40566;50.006;36.180;2022-11-15T09:27:43;100484.75;;;5.08;57.24
54666;BME280;40566;50.006;36.180;2022-11-15T09:32:44;100470.03;;;4.81;57.51
54666;BME280;40566;50.006;36.180;2022-11-15T09:37:44;100442.59;;;4.72;57.94
54666;BME280;40566;50.006;36.180;2022-11-15T09:43:07;100420.28;;;8.37;49.16
54666;BME280;40566;50.006;36.180;2022-11-15T09:49:13;100416.59;;;10.13;45.33
54666;BME280;40566;50.006;36.180;2022-11-15T10:03:56;100415.47;;;16.22;36.12
54666;BME280;40566;50.006;36.180;2022-11-15T10:09:23;100380.53;;;17.84;35.02
54666;BME280;40566;50.006;36.180;2022-11-15T10:14:28;100387.16;;;16.97;35.40
54666;BME280;40566;50.006;36.180;2022-11-15T10:24:43;100370.75;;;18.07;34.33
54666;BME280;40566;50.006;36.180;2022-11-15T10:29:49;100363.41;;;17.77;34.34
54666;BME280;40566;50.006;36.180;2022-11-15T10:34:50;100356.88;;;13.33;41.44
54666;BME280;40566;50.006;36.180;2022-11-15T10:40:05;100338.63;;;9.83;47.38
54666;BME280;40566;50.006;36.180;2022-11-15T10:45:27;100340.41;;;8.36;49.55
54666;BME280;40566;50.006;36.180;2022-11-15T10:50:31;100344.91;;;8.09;49.79
54666;BME280;40566;50.006;36.180;2022-11-15T10:55:33;100343.38;;;7.83;50.03
54666;BME280;40566;50.006;36.180;2022-11-15T11:00:37;100336.09;;;7.02;51.01
54666;BME280;40566;50.006;36.180;2022-11-15T11:05:41;100327.66;;;6.40;52.00
54666;BME280;40566;50.006;36.180;2022-11-15T11:11:00;100318.28;;;5.92;52.53
54666;BME280;40566;50.006;36.180;2022-11-15T11:26:58;100320.69;;;5.20;53.47
54666;BME280;40566;50.006;36.180;2022-11-15T11:48:20;100294.19;;;5.20;53.35
54666;BME280;40566;50.006;36.180;2022-11-15T11:53:35;100273.53;;;4.83;54.37
54666;BME280;40566;50.006;36.180;2022-11-15T11:58:42;100264.09;;;4.71;54.41
54666;BME280;40566;50.006;36.180;2022-11-15T12:09:10;100258.72;;;4.26;55.52
54666;BME280;40566;50.006;36.180;2022-11-15T12:14:31;100228.78;;;4.13;55.64
54666;BME280;40566;50.006;36.180;2022-11-15T12:19:32;100223.72;;;4.19;55.48
54666;BME280;40566;50.006;36.180;2022-11-15T12:24:47;100222.00;;;4.24;55.38
54666;BME280;40566;50.006;36.180;2022-11-15T12:29:55;100192.19;;;4.29;55.10
54666;BME280;40566;50.006;36.180;2022-11-15T12:34:57;100193.94;;;4.40;55.22
54666;BME280;40566;50.006;36.180;2022-11-15T12:40:19;100190.56;;;4.50;54.75
54666;BME280;40566;50.006;36.180;2022-11-15T13:06:41;100155.47;;;4.29;55.76
54666;BME280;40566;50.006;36.180;2022-11-15T13:11:45;100158.97;;;4.45;55.54
54666;BME280;40566;50.006;36.180;2022-11-15T13:16:47;100166.63;;;4.43;55.71
54666;BME280;40566;50.006;36.180;2022-11-15T13:21:49;100158.13;;;4.50;55.63
54666;BME280;40566;50.006;36.180;2022-11-15T13:27:15;100166.59;;;4.40;55.78
54666;BME280;40566;50.006;36.180;2022-11-15T13:32:18;100154.69;;;4.50;55.99
54666;BME280;40566;50.006;36.180;2022-11-15T13:42:20;100127.38;;;4.50;56.04
54666;BME280;40566;50.006;36.180;2022-11-15T13:47:21;100129.94;;;4.50;56.10
54666;BME280;40566;50.006;36.180;2022-11-15T13:52:22;100120.56;;;4.51;56.14
54666;BME280;40566;50.006;36.180;2022-11-15T13:57:30;100113.72;;;4.48;56.30
54666;BME280;40566;50.006;36.180;2022-11-15T14:02:37;100106.00;;;4.41;56.57
54666;BME280;40566;50.006;36.180;2022-11-15T14:07:37;100100.03;;;4.37;56.49
